Washington, District of Columbia
Traffic Map
Current Weather Conditions
Washington, District of Columbia
Scattered Clouds
Scattered Clouds
57°
Feels Like: 57°
Wind Chill: 57° Ceiling: Unl
Heat Index: 57° Visibility: 10mi
Dew Point: 49° Wind: 5mph
Humidity: 74% Direction: 220° (SW)
Pressure: 29.89in Gusts: 0mph
Raw Report DataKDCA 211252Z 22004KT 10SM FEW100 SCT250 14/09 A2989 RMK AO2 SLP121 T01390094
Traffic Incident Summary
Active as of:
Severity:
Category:
InformationThere was an issue retrieving the traffic information for this location. Please try a different location or try again shortly.
Advertisements
Track Severe Weather on mobile